createdAt,value
2017-09-22T00:00:26.085Z,0.00
2017-09-22T00:01:26.088Z,0.00
2017-09-22T00:02:26.090Z,0.00
2017-09-22T00:03:26.090Z,0.00
2017-09-22T00:04:26.083Z,0.00
2017-09-22T00:05:26.083Z,0.00
2017-09-22T00:06:26.081Z,0.00
2017-09-22T00:07:26.083Z,0.00
2017-09-22T00:08:26.080Z,0.00
2017-09-22T00:09:26.083Z,0.00
2017-09-22T00:10:26.082Z,0.00
2017-09-22T00:11:26.080Z,0.00
2017-09-22T00:12:26.078Z,0.00
2017-09-22T00:13:26.080Z,0.00
2017-09-22T00:14:26.078Z,0.00
2017-09-22T00:15:26.077Z,0.00
2017-09-22T00:16:26.075Z,0.00
2017-09-22T00:17:26.076Z,0.00
2017-09-22T00:18:26.076Z,0.00
2017-09-22T00:19:26.075Z,0.00
2017-09-22T00:20:26.071Z,0.00
2017-09-22T00:21:26.079Z,0.00
2017-09-22T00:22:26.075Z,0.00
2017-09-22T00:23:26.069Z,0.00
2017-09-22T00:24:26.067Z,0.00
2017-09-22T00:25:26.086Z,0.00
2017-09-22T00:26:26.075Z,0.00
2017-09-22T00:27:26.068Z,0.00
2017-09-22T00:28:26.066Z,0.00
2017-09-22T00:29:26.068Z,0.00
2017-09-22T00:30:26.066Z,0.00
2017-09-22T00:31:26.068Z,0.00
2017-09-22T00:32:26.063Z,0.00
2017-09-22T00:33:26.087Z,0.00
2017-09-22T00:34:26.063Z,0.00
2017-09-22T00:35:26.062Z,0.00
2017-09-22T00:36:26.064Z,0.00
2017-09-22T00:37:26.068Z,0.00
2017-09-22T00:38:26.065Z,0.00
2017-09-22T00:39:26.065Z,0.00
2017-09-22T00:40:26.064Z,0.00
2017-09-22T00:41:26.062Z,0.00
2017-09-22T00:42:26.061Z,0.00
2017-09-22T00:43:26.065Z,0.00
2017-09-22T00:44:26.071Z,0.00
2017-09-22T00:45:26.063Z,0.00
2017-09-22T00:46:26.058Z,0.00
2017-09-22T00:47:26.066Z,0.00
2017-09-22T00:48:26.057Z,0.00
2017-09-22T00:49:26.060Z,0.00
2017-09-22T00:50:26.053Z,0.00
2017-09-22T00:51:26.052Z,0.00
2017-09-22T00:52:26.055Z,0.00
2017-09-22T00:53:26.067Z,0.00
2017-09-22T00:54:26.055Z,0.00
2017-09-22T00:55:26.053Z,0.00
2017-09-22T00:56:26.053Z,0.00
2017-09-22T00:57:26.051Z,0.00
2017-09-22T00:58:26.053Z,0.00
2017-09-22T00:59:26.051Z,0.00
2017-09-22T01:00:26.053Z,0.00
2017-09-22T01:01:26.051Z,0.00
2017-09-22T01:02:26.049Z,0.00
2017-09-22T01:03:26.051Z,0.00
2017-09-22T01:04:26.047Z,0.00
2017-09-22T01:05:26.046Z,0.00
2017-09-22T01:06:26.045Z,0.00
2017-09-22T01:07:26.045Z,0.00
2017-09-22T01:08:26.043Z,0.00
2017-09-22T01:09:26.044Z,0.00
2017-09-22T01:10:26.042Z,0.00
2017-09-22T01:11:26.045Z,0.00
2017-09-22T01:12:26.042Z,0.00
2017-09-22T01:13:26.040Z,0.00
2017-09-22T01:14:26.076Z,0.00
2017-09-22T01:15:26.041Z,0.00
2017-09-22T01:16:26.036Z,0.00
2017-09-22T01:17:26.037Z,0.00
2017-09-22T01:18:26.048Z,0.00
2017-09-22T01:19:26.038Z,0.00
2017-09-22T01:20:26.042Z,0.00
2017-09-22T01:21:26.029Z,0.00
2017-09-22T01:22:26.034Z,0.00
2017-09-22T01:23:26.034Z,0.00
2017-09-22T01:24:26.032Z,0.00
2017-09-22T01:25:26.031Z,0.00
2017-09-22T01:26:26.030Z,0.00
2017-09-22T01:27:26.033Z,0.00
2017-09-22T01:28:26.031Z,0.00
2017-09-22T01:29:26.027Z,0.00
2017-09-22T01:30:26.031Z,0.00
2017-09-22T01:31:26.028Z,0.00
2017-09-22T01:32:26.024Z,0.00
2017-09-22T01:33:26.023Z,0.00
2017-09-22T01:34:26.027Z,0.00
2017-09-22T01:35:26.025Z,0.00
2017-09-22T01:36:26.024Z,0.00
2017-09-22T01:37:26.024Z,0.00
2017-09-22T01:38:26.027Z,0.00
2017-09-22T01:39:26.024Z,0.00
2017-09-22T01:40:26.025Z,0.00
2017-09-22T01:41:26.019Z,0.00
2017-09-22T01:42:26.020Z,0.00
2017-09-22T01:43:26.022Z,0.00
2017-09-22T01:44:26.018Z,0.00
2017-09-22T01:45:26.016Z,0.00
2017-09-22T01:46:26.019Z,0.00
2017-09-22T01:47:26.017Z,0.00
2017-09-22T01:48:26.014Z,0.00
2017-09-22T01:49:26.014Z,0.00
2017-09-22T01:50:26.010Z,0.00
2017-09-22T01:51:26.016Z,0.00
2017-09-22T01:52:26.011Z,0.00
2017-09-22T01:53:26.012Z,0.00
2017-09-22T01:54:26.012Z,0.00
2017-09-22T01:55:26.010Z,0.00
2017-09-22T01:56:26.009Z,0.00
2017-09-22T01:57:26.005Z,0.00
2017-09-22T01:58:26.007Z,0.00
2017-09-22T01:59:26.009Z,0.00
2017-09-22T02:00:26.005Z,0.00
2017-09-22T02:01:26.002Z,0.00
2017-09-22T02:02:26.003Z,0.00
2017-09-22T02:03:26.003Z,0.00
2017-09-22T02:04:26.003Z,0.00
2017-09-22T02:05:26.003Z,0.00
2017-09-22T02:06:25.998Z,0.00
2017-09-22T02:07:26.003Z,0.00
2017-09-22T02:08:26.002Z,0.00
2017-09-22T02:09:25.997Z,0.00
2017-09-22T02:10:25.996Z,0.00
2017-09-22T02:11:25.996Z,0.00
2017-09-22T02:12:25.995Z,0.00
2017-09-22T02:13:25.993Z,0.00
2017-09-22T02:14:25.991Z,0.00
2017-09-22T02:15:25.994Z,0.00
2017-09-22T02:16:25.992Z,0.00
2017-09-22T02:17:25.994Z,0.00
2017-09-22T02:18:25.992Z,0.00
2017-09-22T02:19:25.996Z,0.00
2017-09-22T02:20:25.989Z,0.00
2017-09-22T02:21:25.992Z,0.00
2017-09-22T02:22:25.990Z,0.00
2017-09-22T02:23:25.986Z,0.00
2017-09-22T02:24:25.985Z,0.00
2017-09-22T02:25:25.986Z,0.00
2017-09-22T02:26:25.987Z,0.00
2017-09-22T02:27:25.992Z,0.00
2017-09-22T02:28:25.984Z,0.00
2017-09-22T02:29:25.982Z,0.00
2017-09-22T02:30:25.983Z,0.00
2017-09-22T02:31:25.981Z,0.00
2017-09-22T02:32:25.980Z,0.00
2017-09-22T02:33:25.980Z,0.00
2017-09-22T02:34:25.985Z,0.00
2017-09-22T02:35:25.983Z,0.00
2017-09-22T02:36:25.978Z,0.00
2017-09-22T02:37:25.979Z,0.00
2017-09-22T02:38:25.978Z,0.00
2017-09-22T02:39:25.982Z,0.00
2017-09-22T02:40:25.975Z,0.00
2017-09-22T02:41:25.974Z,0.00
2017-09-22T02:42:25.973Z,0.00
2017-09-22T02:43:25.974Z,0.00
2017-09-22T02:44:25.974Z,0.00
2017-09-22T02:45:25.971Z,0.00
2017-09-22T02:46:25.972Z,0.00
2017-09-22T02:47:25.972Z,0.00
2017-09-22T02:48:25.971Z,0.00
2017-09-22T02:49:25.971Z,0.00
2017-09-22T02:50:25.968Z,0.00
2017-09-22T02:51:25.968Z,0.00
2017-09-22T02:52:25.966Z,0.00
2017-09-22T02:53:25.965Z,0.00
2017-09-22T02:54:25.966Z,0.00
2017-09-22T02:55:25.962Z,0.00
2017-09-22T02:56:25.963Z,0.00
2017-09-22T02:57:25.963Z,0.00
2017-09-22T02:58:25.967Z,0.00
2017-09-22T02:59:25.960Z,0.00
2017-09-22T03:00:25.959Z,0.00
2017-09-22T03:01:25.958Z,0.00
2017-09-22T03:02:25.958Z,0.00
2017-09-22T03:03:25.956Z,0.00
2017-09-22T03:04:25.955Z,0.00
2017-09-22T03:05:25.953Z,0.00
2017-09-22T03:06:25.955Z,0.00
2017-09-22T03:07:25.954Z,0.00
2017-09-22T03:08:25.952Z,0.00
2017-09-22T03:09:25.953Z,0.00
2017-09-22T03:10:25.949Z,0.00
2017-09-22T03:11:25.952Z,0.00
2017-09-22T03:12:25.944Z,0.00
2017-09-22T03:13:25.947Z,0.00
2017-09-22T03:14:25.946Z,0.00
2017-09-22T03:15:25.948Z,0.00
2017-09-22T03:16:25.944Z,0.00
2017-09-22T03:17:25.942Z,0.00
2017-09-22T03:18:25.976Z,0.00
2017-09-22T03:19:25.943Z,0.00
2017-09-22T03:20:25.942Z,0.00
2017-09-22T03:21:25.941Z,0.00
2017-09-22T03:22:25.939Z,0.00
2017-09-22T03:23:25.943Z,0.00
2017-09-22T03:24:25.935Z,0.00
2017-09-22T03:25:25.937Z,0.00
2017-09-22T03:26:25.937Z,0.00
2017-09-22T03:27:25.936Z,0.00
2017-09-22T03:28:25.934Z,0.00
2017-09-22T03:29:25.931Z,0.00
2017-09-22T03:30:25.935Z,0.00
2017-09-22T03:31:25.932Z,0.00
2017-09-22T03:32:25.929Z,0.00
2017-09-22T03:33:25.934Z,0.00
2017-09-22T03:34:25.928Z,0.00
2017-09-22T03:35:25.931Z,0.00
2017-09-22T03:36:25.924Z,0.00
2017-09-22T03:37:25.936Z,0.00
2017-09-22T03:38:25.927Z,0.00
2017-09-22T03:39:25.926Z,0.00
2017-09-22T03:40:25.925Z,0.00
2017-09-22T03:41:25.923Z,0.00
2017-09-22T03:42:25.924Z,0.00
2017-09-22T03:43:25.920Z,0.00
2017-09-22T03:44:25.921Z,0.00
2017-09-22T03:45:25.922Z,0.00
2017-09-22T03:46:25.920Z,0.00
2017-09-22T03:47:25.914Z,0.00
2017-09-22T03:48:25.915Z,0.00
2017-09-22T03:49:25.916Z,0.00
2017-09-22T03:50:25.912Z,0.00
2017-09-22T03:51:25.914Z,0.00
2017-09-22T03:52:25.920Z,0.00
2017-09-22T03:53:25.914Z,0.00
2017-09-22T03:54:25.914Z,0.00
2017-09-22T03:55:25.956Z,0.00
2017-09-22T03:56:25.909Z,0.00
2017-09-22T03:57:25.921Z,0.00
2017-09-22T03:58:25.908Z,0.00
2017-09-22T03:59:25.908Z,0.00
2017-09-22T04:00:25.908Z,0.00
2017-09-22T04:01:25.901Z,0.00
2017-09-22T04:02:25.908Z,0.00
2017-09-22T04:03:25.902Z,0.00
2017-09-22T04:04:25.904Z,0.00
2017-09-22T04:05:25.917Z,0.00
2017-09-22T04:06:25.919Z,0.00
2017-09-22T04:07:25.900Z,0.00
2017-09-22T04:08:25.899Z,0.00
2017-09-22T04:09:25.898Z,0.00
2017-09-22T04:10:25.901Z,0.00
2017-09-22T04:11:25.897Z,0.00
2017-09-22T04:12:25.899Z,0.00
2017-09-22T04:13:25.893Z,0.00
2017-09-22T04:14:25.900Z,0.00
2017-09-22T04:15:25.892Z,0.00
2017-09-22T04:16:25.891Z,0.00
2017-09-22T04:17:25.890Z,0.00
2017-09-22T04:18:25.898Z,0.00
2017-09-22T04:19:25.901Z,0.00
2017-09-22T04:20:25.889Z,0.00
2017-09-22T04:21:25.886Z,0.00
2017-09-22T04:22:25.892Z,0.00
2017-09-22T04:23:27.617Z,0.00
2017-09-22T04:24:25.885Z,0.00
2017-09-22T04:25:25.880Z,0.00
2017-09-22T04:26:25.884Z,0.00
2017-09-22T04:27:25.882Z,0.00
2017-09-22T04:28:25.877Z,0.00
2017-09-22T04:29:25.880Z,0.00
2017-09-22T04:30:25.880Z,4.00
2017-09-22T04:31:25.880Z,0.00
2017-09-22T04:32:25.879Z,0.00
2017-09-22T04:33:25.878Z,4.00
2017-09-22T04:34:25.875Z,4.00
2017-09-22T04:35:25.875Z,4.00
2017-09-22T04:36:25.869Z,8.00
2017-09-22T04:37:25.875Z,8.00
2017-09-22T04:38:25.871Z,8.00
2017-09-22T04:39:25.872Z,12.00
2017-09-22T04:40:25.865Z,8.00
2017-09-22T04:41:25.869Z,12.00
2017-09-22T04:42:25.867Z,16.00
2017-09-22T04:43:25.868Z,20.00
2017-09-22T04:44:25.865Z,20.00
2017-09-22T04:45:25.862Z,20.00
2017-09-22T04:46:25.867Z,24.00
2017-09-22T04:47:25.865Z,32.00
2017-09-22T04:48:25.860Z,32.00
2017-09-22T04:49:25.857Z,36.00
2017-09-22T04:50:25.866Z,36.00
2017-09-22T04:51:25.859Z,40.00
2017-09-22T04:52:25.855Z,44.00
2017-09-22T04:53:25.855Z,44.00
2017-09-22T04:54:25.860Z,52.00
2017-09-22T04:55:25.854Z,56.00
2017-09-22T04:56:25.855Z,64.00
2017-09-22T04:57:25.851Z,72.00
2017-09-22T04:58:25.861Z,80.00
2017-09-22T04:59:25.853Z,88.00
2017-09-22T05:00:25.847Z,92.00
2017-09-22T05:01:25.849Z,104.00
2017-09-22T05:02:25.860Z,116.00
2017-09-22T05:03:25.855Z,132.00
2017-09-22T05:04:25.849Z,152.00
2017-09-22T05:05:25.844Z,168.00
2017-09-22T05:06:25.843Z,180.00
2017-09-22T05:07:25.845Z,184.00
2017-09-22T05:08:25.841Z,180.00
2017-09-22T05:09:25.840Z,176.00
2017-09-22T05:10:25.841Z,180.00
2017-09-22T05:11:25.838Z,184.00
2017-09-22T05:12:25.836Z,196.00
2017-09-22T05:13:25.837Z,196.00
2017-09-22T05:14:25.833Z,204.00
2017-09-22T05:15:25.836Z,212.00
2017-09-22T05:16:25.833Z,216.00
2017-09-22T05:17:25.834Z,220.00
2017-09-22T05:18:25.831Z,228.00
2017-09-22T05:19:25.832Z,236.00
2017-09-22T05:20:25.827Z,248.00
2017-09-22T05:21:25.830Z,256.00
2017-09-22T05:22:25.831Z,268.00
2017-09-22T05:23:25.829Z,284.00
2017-09-22T05:24:25.827Z,304.00
2017-09-22T05:25:25.825Z,320.00
2017-09-22T05:26:25.826Z,336.00
2017-09-22T05:27:25.826Z,360.00
2017-09-22T05:28:25.820Z,388.00
2017-09-22T05:29:25.821Z,400.00
2017-09-22T05:30:25.828Z,412.00
2017-09-22T05:31:25.819Z,416.00
2017-09-22T05:32:25.817Z,412.00
2017-09-22T05:33:25.816Z,420.00
2017-09-22T05:34:25.838Z,428.00
2017-09-22T05:35:25.825Z,436.00
2017-09-22T05:36:25.815Z,448.00
2017-09-22T05:37:25.817Z,464.00
2017-09-22T05:38:25.824Z,492.00
2017-09-22T05:39:25.814Z,524.00
2017-09-22T05:40:25.812Z,540.00
2017-09-22T05:41:25.811Z,536.00
2017-09-22T05:42:25.840Z,544.00
2017-09-22T05:43:25.809Z,556.00
2017-09-22T05:44:25.806Z,560.00
2017-09-22T05:45:25.811Z,580.00
2017-09-22T05:46:25.807Z,612.00
2017-09-22T05:47:25.806Z,640.00
2017-09-22T05:48:25.806Z,664.00
2017-09-22T05:49:25.810Z,672.00
2017-09-22T05:50:25.800Z,680.00
2017-09-22T05:51:25.800Z,684.00
2017-09-22T05:52:25.798Z,692.00
2017-09-22T05:53:25.801Z,704.00
2017-09-22T05:54:25.801Z,716.00
2017-09-22T05:55:25.796Z,720.00
2017-09-22T05:56:25.795Z,756.00
2017-09-22T05:57:25.795Z,832.00
2017-09-22T05:58:25.794Z,908.00
2017-09-22T05:59:25.796Z,940.00
2017-09-22T06:00:25.792Z,972.00
2017-09-22T06:01:25.811Z,1004.00
2017-09-22T06:02:25.792Z,1028.00
2017-09-22T06:03:25.789Z,1044.00
2017-09-22T06:04:25.792Z,1092.00
2017-09-22T06:05:25.790Z,1148.00
2017-09-22T06:06:25.795Z,1196.00
2017-09-22T06:07:25.786Z,1208.00
2017-09-22T06:08:25.786Z,1192.00
2017-09-22T06:09:25.790Z,1160.00
2017-09-22T06:10:25.784Z,1096.00
2017-09-22T06:11:25.784Z,1032.00
2017-09-22T06:12:25.778Z,972.00
2017-09-22T06:13:25.786Z,940.00
2017-09-22T06:14:25.785Z,940.00
2017-09-22T06:15:25.782Z,972.00
2017-09-22T06:16:25.783Z,1004.00
2017-09-22T06:17:25.776Z,1040.00
2017-09-22T06:18:25.777Z,1044.00
2017-09-22T06:19:25.778Z,1044.00
2017-09-22T06:20:25.774Z,1024.00
2017-09-22T06:21:25.782Z,984.00
2017-09-22T06:22:25.780Z,944.00
2017-09-22T06:23:25.776Z,904.00
2017-09-22T06:24:25.774Z,876.00
2017-09-22T06:25:25.776Z,852.00
2017-09-22T06:26:25.774Z,820.00
2017-09-22T06:27:25.819Z,784.00
2017-09-22T06:28:25.778Z,768.00
2017-09-22T06:29:25.769Z,752.00
2017-09-22T06:30:25.770Z,752.00
2017-09-22T06:31:25.778Z,764.00
2017-09-22T06:32:25.763Z,780.00
2017-09-22T06:33:25.767Z,792.00
2017-09-22T06:34:25.769Z,808.00
2017-09-22T06:35:25.766Z,828.00
2017-09-22T06:36:25.765Z,856.00
2017-09-22T06:37:25.765Z,884.00
2017-09-22T06:38:25.765Z,916.00
2017-09-22T06:39:25.765Z,964.00
2017-09-22T06:40:25.769Z,1004.00
2017-09-22T06:41:25.761Z,1036.00
2017-09-22T06:42:25.765Z,1096.00
2017-09-22T06:43:25.765Z,1172.00
2017-09-22T06:44:25.760Z,1252.00
2017-09-22T06:45:25.758Z,1332.00
2017-09-22T06:46:25.770Z,1396.00
2017-09-22T06:47:25.756Z,1444.00
2017-09-22T06:48:25.757Z,1492.00
2017-09-22T06:49:25.759Z,1516.00
2017-09-22T06:50:25.764Z,1532.00
2017-09-22T06:51:25.754Z,1552.00
2017-09-22T06:52:25.755Z,1608.00
2017-09-22T06:53:25.751Z,1700.00
2017-09-22T06:54:25.753Z,1728.00
2017-09-22T06:55:25.753Z,1708.00
2017-09-22T06:56:25.756Z,1672.00
2017-09-22T06:57:25.745Z,1640.00
2017-09-22T06:58:25.749Z,1672.00
2017-09-22T06:59:25.744Z,1768.00
2017-09-22T07:00:25.745Z,1904.00
2017-09-22T07:01:25.750Z,2036.00
2017-09-22T07:02:27.643Z,2164.00
2017-09-22T07:03:25.747Z,2316.00
2017-09-22T07:04:25.745Z,2488.00
2017-09-22T07:05:25.746Z,2684.00
2017-09-22T07:06:25.745Z,2868.00
2017-09-22T07:07:25.747Z,2980.00
2017-09-22T07:08:25.745Z,3052.00
2017-09-22T07:09:25.745Z,3076.00
2017-09-22T07:10:25.742Z,3092.00
2017-09-22T07:11:25.743Z,3056.00
2017-09-22T07:12:25.741Z,2924.00
2017-09-22T07:13:25.741Z,2712.00
2017-09-22T07:14:25.739Z,2500.00
2017-09-22T07:15:25.741Z,2396.00
2017-09-22T07:16:25.741Z,2440.00
2017-09-22T07:17:25.740Z,2564.00
2017-09-22T07:18:25.740Z,2688.00
2017-09-22T07:19:25.735Z,2784.00
2017-09-22T07:20:25.801Z,2848.00
2017-09-22T07:21:25.739Z,2912.00
2017-09-22T07:22:25.749Z,3032.00
2017-09-22T07:23:25.737Z,3128.00
2017-09-22T07:24:25.739Z,3164.00
2017-09-22T07:25:25.738Z,3212.00
2017-09-22T07:26:25.749Z,3308.00
2017-09-22T07:27:25.737Z,3416.00
2017-09-22T07:28:25.738Z,3524.00
2017-09-22T07:29:25.735Z,3600.00
2017-09-22T07:30:25.730Z,3588.00
2017-09-22T07:31:25.740Z,3504.00
2017-09-22T07:32:25.737Z,3384.00
2017-09-22T07:33:25.731Z,3268.00
2017-09-22T07:34:25.732Z,3200.00
2017-09-22T07:35:25.734Z,3184.00
2017-09-22T07:36:25.733Z,3192.00
2017-09-22T07:37:25.733Z,3172.00
2017-09-22T07:38:25.738Z,3084.00
2017-09-22T07:39:25.734Z,2924.00
2017-09-22T07:40:25.733Z,2788.00
2017-09-22T07:41:25.735Z,2668.00
2017-09-22T07:42:25.733Z,2524.00
2017-09-22T07:43:25.738Z,2372.00
2017-09-22T07:44:25.729Z,2284.00
2017-09-22T07:45:25.738Z,2268.00
2017-09-22T07:46:25.733Z,2292.00
2017-09-22T07:47:25.745Z,2320.00
2017-09-22T07:48:25.732Z,2300.00
2017-09-22T07:49:28.654Z,2280.00
2017-09-22T07:50:25.727Z,2272.00
2017-09-22T07:51:25.730Z,2276.00
2017-09-22T07:52:25.731Z,2368.00
2017-09-22T07:53:25.733Z,2548.00
2017-09-22T07:54:25.734Z,2728.00
2017-09-22T07:55:25.728Z,2856.00
2017-09-22T07:56:25.732Z,2920.00
2017-09-22T07:57:25.727Z,2836.00
2017-09-22T07:58:25.727Z,2844.00
2017-09-22T07:59:25.730Z,3044.00
2017-09-22T08:00:25.726Z,3336.00
2017-09-22T08:01:25.729Z,3428.00
2017-09-22T08:02:25.730Z,3676.00
2017-09-22T08:03:25.725Z,3972.00
2017-09-22T08:04:25.730Z,4280.00
2017-09-22T08:05:25.730Z,4512.00
2017-09-22T08:06:25.730Z,4780.00
2017-09-22T08:07:25.733Z,5064.00
2017-09-22T08:08:25.732Z,5372.00
2017-09-22T08:09:25.732Z,5596.00
2017-09-22T08:10:25.728Z,5832.00
2017-09-22T08:11:25.728Z,6196.00
2017-09-22T08:12:25.728Z,6672.00
2017-09-22T08:13:25.728Z,7060.00
2017-09-22T08:14:25.727Z,7260.00
2017-09-22T08:15:25.729Z,7464.00
2017-09-22T08:16:25.731Z,7600.00
2017-09-22T08:17:25.730Z,7828.00
2017-09-22T08:18:25.736Z,7852.00
2017-09-22T08:19:25.734Z,7940.00
2017-09-22T08:20:25.732Z,8080.00
2017-09-22T08:21:25.741Z,8152.00
2017-09-22T08:22:25.730Z,8164.00
2017-09-22T08:23:25.732Z,8268.00
2017-09-22T08:24:25.745Z,8248.00
2017-09-22T08:25:25.729Z,8192.00
2017-09-22T08:26:25.732Z,8228.00
2017-09-22T08:27:25.731Z,8396.00
2017-09-22T08:28:25.735Z,8560.00
2017-09-22T08:29:25.731Z,8676.00
2017-09-22T08:30:25.737Z,8640.00
2017-09-22T08:31:25.745Z,8524.00
2017-09-22T08:32:25.736Z,8504.00
2017-09-22T08:33:25.736Z,8544.00
2017-09-22T08:34:25.737Z,8364.00
2017-09-22T08:35:25.747Z,8064.00
2017-09-22T08:36:25.744Z,7868.00
2017-09-22T08:37:25.751Z,7880.00
2017-09-22T08:38:25.743Z,8000.00
2017-09-22T08:39:25.750Z,8108.00
2017-09-22T08:40:25.747Z,7988.00
2017-09-22T08:41:25.755Z,7884.00
2017-09-22T08:42:25.751Z,8080.00
2017-09-22T08:43:25.749Z,8384.00
2017-09-22T08:44:25.752Z,8596.00
2017-09-22T08:45:25.755Z,8688.00
2017-09-22T08:46:25.758Z,8340.00
2017-09-22T08:47:27.673Z,7884.00
2017-09-22T08:48:25.761Z,7596.00
2017-09-22T08:49:25.759Z,7492.00
2017-09-22T08:50:25.763Z,7528.00
2017-09-22T08:51:25.769Z,7648.00
2017-09-22T08:52:25.777Z,7780.00
2017-09-22T08:53:25.768Z,7736.00
2017-09-22T08:54:25.769Z,7280.00
2017-09-22T08:55:25.770Z,7152.00
2017-09-22T08:56:25.774Z,7088.00
2017-09-22T08:57:25.779Z,6808.00
2017-09-22T08:58:25.778Z,6596.00
2017-09-22T08:59:25.777Z,6508.00
2017-09-22T09:00:25.785Z,6452.00
2017-09-22T09:01:25.791Z,6456.00
2017-09-22T09:02:25.783Z,6644.00
2017-09-22T09:03:25.782Z,6952.00
2017-09-22T09:04:25.785Z,7352.00
2017-09-22T09:05:25.787Z,7784.00
2017-09-22T09:06:25.789Z,8020.00
2017-09-22T09:07:25.787Z,7948.00
2017-09-22T09:08:25.794Z,7732.00
2017-09-22T09:09:25.804Z,7440.00
2017-09-22T09:10:25.797Z,7416.00
2017-09-22T09:11:25.802Z,7428.00
2017-09-22T09:12:25.800Z,7448.00
2017-09-22T09:13:25.802Z,7208.00
2017-09-22T09:14:25.801Z,6728.00
2017-09-22T09:15:25.809Z,5960.00
2017-09-22T09:16:25.806Z,5400.00
2017-09-22T09:17:25.809Z,5132.00
2017-09-22T09:18:25.821Z,5052.00
2017-09-22T09:19:25.815Z,5028.00
2017-09-22T09:20:25.816Z,5040.00
2017-09-22T09:21:25.836Z,5020.00
2017-09-22T09:22:25.820Z,4948.00
2017-09-22T09:23:25.823Z,4884.00
2017-09-22T09:24:25.824Z,4864.00
2017-09-22T09:25:25.824Z,4800.00
2017-09-22T09:26:25.828Z,4788.00
2017-09-22T09:27:25.827Z,4916.00
2017-09-22T09:28:25.833Z,5124.00
2017-09-22T09:29:25.828Z,5372.00
2017-09-22T09:30:25.829Z,5764.00
2017-09-22T09:31:25.835Z,6396.00
2017-09-22T09:32:25.832Z,6660.00
2017-09-22T09:33:25.839Z,6516.00
2017-09-22T09:34:25.839Z,6260.00
2017-09-22T09:35:25.841Z,6056.00
2017-09-22T09:36:25.841Z,6068.00
2017-09-22T09:37:25.844Z,5852.00
2017-09-22T09:38:25.851Z,5744.00
2017-09-22T09:39:25.853Z,5604.00
2017-09-22T09:40:25.847Z,5228.00
2017-09-22T09:41:25.864Z,5000.00
2017-09-22T09:42:25.853Z,4884.00
2017-09-22T09:43:25.855Z,4816.00
2017-09-22T09:44:25.861Z,4664.00
2017-09-22T09:45:25.856Z,4488.00
2017-09-22T09:46:25.856Z,4388.00
2017-09-22T09:47:25.859Z,4360.00
2017-09-22T09:48:25.861Z,4444.00
2017-09-22T09:49:25.866Z,4784.00
2017-09-22T09:50:25.867Z,5164.00
2017-09-22T09:51:25.874Z,5292.00
2017-09-22T09:52:25.899Z,5396.00
2017-09-22T09:53:25.872Z,5356.00
2017-09-22T09:54:25.873Z,5128.00
2017-09-22T09:55:25.881Z,4980.00
2017-09-22T09:56:25.876Z,5032.00
2017-09-22T09:57:25.875Z,5300.00
2017-09-22T09:58:25.884Z,5624.00
2017-09-22T09:59:25.880Z,5772.00
2017-09-22T10:00:25.879Z,5908.00
2017-09-22T10:01:25.888Z,6136.00
2017-09-22T10:02:25.886Z,6436.00
2017-09-22T10:03:25.888Z,6760.00
2017-09-22T10:04:25.890Z,7076.00
2017-09-22T10:05:25.894Z,7172.00
2017-09-22T10:06:25.892Z,7244.00
2017-09-22T10:07:25.895Z,7020.00
2017-09-22T10:08:25.895Z,6812.00
2017-09-22T10:09:25.905Z,7024.00
2017-09-22T10:10:25.927Z,7480.00
2017-09-22T10:11:25.936Z,8004.00
2017-09-22T10:12:25.904Z,8312.00
2017-09-22T10:13:25.908Z,8220.00
2017-09-22T10:14:25.907Z,8348.00
2017-09-22T10:15:25.909Z,9168.00
2017-09-22T10:16:25.912Z,9696.00
2017-09-22T10:17:25.917Z,10188.00
2017-09-22T10:18:25.911Z,10464.00
2017-09-22T10:19:25.915Z,10280.00
2017-09-22T10:20:25.918Z,9720.00
2017-09-22T10:21:25.924Z,9720.00
2017-09-22T10:22:33.542Z,10036.00
2017-09-22T10:24:20.303Z,10428.00
2017-09-22T10:25:20.291Z,11036.00
2017-09-22T10:27:14.698Z,10824.00
2017-09-22T10:28:14.665Z,11148.00
2017-09-22T10:30:08.073Z,11516.00
2017-09-22T10:31:08.046Z,10592.00
2017-09-22T10:33:01.433Z,9760.00
2017-09-22T10:34:01.422Z,9084.00
2017-09-22T10:35:01.426Z,8364.00
2017-09-22T10:36:01.432Z,7972.00
2017-09-22T10:37:01.431Z,7812.00
2017-09-22T10:38:01.434Z,7796.00
2017-09-22T10:39:01.437Z,8004.00
2017-09-22T10:40:01.442Z,7888.00
2017-09-22T10:41:01.443Z,7724.00
2017-09-22T10:42:01.446Z,7988.00
2017-09-22T10:43:01.448Z,8148.00
2017-09-22T10:44:01.448Z,8368.00
2017-09-22T10:45:01.453Z,8596.00
2017-09-22T10:46:01.457Z,8780.00
2017-09-22T10:47:01.462Z,8944.00
2017-09-22T10:48:01.464Z,9140.00
2017-09-22T10:49:01.467Z,9492.00
2017-09-22T10:50:01.472Z,10008.00
2017-09-22T10:51:01.479Z,10516.00
2017-09-22T10:52:01.481Z,10768.00
2017-09-22T10:53:01.482Z,10880.00
2017-09-22T10:54:01.489Z,11180.00
2017-09-22T10:55:01.497Z,11888.00
2017-09-22T10:56:01.488Z,12296.00
2017-09-22T10:57:01.501Z,12292.00
2017-09-22T10:58:01.499Z,12684.00
2017-09-22T10:59:01.500Z,12900.00
2017-09-22T11:00:01.500Z,12672.00
2017-09-22T11:01:01.510Z,12028.00
2017-09-22T11:02:01.511Z,11416.00
2017-09-22T11:03:01.510Z,10828.00
2017-09-22T11:04:01.515Z,10608.00
2017-09-22T11:05:01.520Z,10684.00
2017-09-22T11:06:01.524Z,10788.00
2017-09-22T11:07:01.552Z,10788.00
2017-09-22T11:08:01.545Z,10868.00
2017-09-22T11:09:01.533Z,10952.00
2017-09-22T11:10:01.544Z,11164.00
2017-09-22T11:11:01.538Z,11380.00
2017-09-22T11:12:01.545Z,11280.00
2017-09-22T11:13:01.550Z,11256.00
2017-09-22T11:14:01.549Z,11124.00
2017-09-22T11:15:01.551Z,11012.00
2017-09-22T11:16:01.558Z,10880.00
2017-09-22T11:17:01.562Z,10540.00
2017-09-22T11:18:01.568Z,10204.00
2017-09-22T11:19:01.568Z,10000.00
2017-09-22T11:20:01.585Z,9896.00
2017-09-22T11:21:01.589Z,9792.00
2017-09-22T11:22:01.773Z,9436.00
2017-09-22T11:23:01.581Z,8916.00
2017-09-22T11:24:01.581Z,8204.00
2017-09-22T11:25:01.587Z,7640.00
2017-09-22T11:26:01.608Z,7104.00
2017-09-22T11:27:01.592Z,6548.00
2017-09-22T11:28:04.484Z,6252.00
2017-09-22T11:29:01.601Z,6312.00
2017-09-22T11:30:01.607Z,5908.00
2017-09-22T11:31:01.611Z,5800.00
2017-09-22T11:32:01.614Z,5620.00
2017-09-22T11:33:01.617Z,5508.00
2017-09-22T11:34:01.625Z,5588.00
2017-09-22T11:35:01.657Z,5748.00
2017-09-22T11:36:01.635Z,5376.00
2017-09-22T11:37:01.634Z,5296.00
2017-09-22T11:38:01.640Z,5320.00
2017-09-22T11:39:01.640Z,5444.00
2017-09-22T11:40:01.663Z,5556.00
2017-09-22T11:41:01.643Z,5548.00
2017-09-22T11:42:01.679Z,5628.00
2017-09-22T11:43:01.651Z,5608.00
2017-09-22T11:44:01.664Z,5376.00
2017-09-22T11:45:01.658Z,5164.00
2017-09-22T11:46:01.654Z,5356.00
2017-09-22T11:47:01.672Z,5356.00
2017-09-22T11:48:01.669Z,5328.00
2017-09-22T11:49:01.668Z,5180.00
2017-09-22T11:50:01.672Z,5360.00
2017-09-22T11:51:01.692Z,5632.00
2017-09-22T11:52:01.698Z,5416.00
2017-09-22T11:53:01.683Z,5652.00
2017-09-22T11:54:01.682Z,5732.00
2017-09-22T11:55:01.677Z,5616.00
2017-09-22T11:56:01.700Z,5588.00
2017-09-22T11:57:01.695Z,5672.00
2017-09-22T11:58:01.707Z,5624.00
2017-09-22T11:59:01.695Z,5604.00
2017-09-22T12:00:01.697Z,5576.00
2017-09-22T12:01:01.700Z,5796.00
2017-09-22T12:02:01.707Z,5724.00
2017-09-22T12:03:01.711Z,5800.00
2017-09-22T12:04:01.724Z,6028.00
2017-09-22T12:05:01.712Z,6072.00
2017-09-22T12:06:01.729Z,5964.00
2017-09-22T12:07:01.722Z,6052.00
2017-09-22T12:08:01.722Z,6036.00
2017-09-22T12:09:01.716Z,5864.00
2017-09-22T12:10:01.745Z,5672.00
2017-09-22T12:11:01.729Z,5636.00
2017-09-22T12:12:03.496Z,5672.00
2017-09-22T12:13:01.734Z,5784.00
2017-09-22T12:14:11.394Z,5712.00
2017-09-22T12:15:55.137Z,5888.00
2017-09-22T12:16:55.122Z,5964.00
2017-09-22T12:18:49.605Z,5884.00
2017-09-22T12:19:49.523Z,6256.00
2017-09-22T12:20:49.517Z,6616.00
2017-09-22T12:21:49.506Z,6896.00
2017-09-22T12:22:49.504Z,6792.00
2017-09-22T12:23:49.512Z,6512.00
2017-09-22T12:24:49.537Z,6168.00
2017-09-22T12:25:49.512Z,5896.00
2017-09-22T12:26:49.520Z,5728.00
2017-09-22T12:27:49.527Z,5744.00
2017-09-22T12:28:49.538Z,5676.00
2017-09-22T12:29:49.531Z,5496.00
2017-09-22T12:30:49.534Z,5468.00
2017-09-22T12:31:49.535Z,5372.00
2017-09-22T12:32:49.555Z,5232.00
2017-09-22T12:33:49.542Z,5464.00
2017-09-22T12:34:49.547Z,5616.00
2017-09-22T12:35:49.549Z,5800.00
2017-09-22T12:36:49.556Z,5824.00
2017-09-22T12:37:49.551Z,5476.00
2017-09-22T12:38:49.558Z,5336.00